createdAt,value
2022-12-23T00:00:57.330Z,99321.00
2022-12-23T00:03:24.485Z,99314.78
2022-12-23T00:05:51.754Z,99314.88
2022-12-23T00:08:19.065Z,99308.81
2022-12-23T00:10:48.124Z,99311.50
2022-12-23T00:13:33.114Z,99310.66
2022-12-23T00:16:11.873Z,99307.13
2022-12-23T00:18:39.304Z,99320.16
2022-12-23T00:21:12.865Z,99319.50
2022-12-23T00:23:41.765Z,99314.19
2022-12-23T00:26:14.056Z,99321.00
2022-12-23T00:28:40.766Z,99297.56
2022-12-23T00:31:08.335Z,99293.28
2022-12-23T00:33:38.040Z,99296.56
2022-12-23T00:36:19.312Z,99296.56
2022-12-23T00:39:04.566Z,99291.34
2022-12-23T00:41:50.541Z,99292.06
2022-12-23T00:44:17.329Z,99298.94
2022-12-23T00:46:44.233Z,99301.63
2022-12-23T00:49:34.723Z,99306.06
2022-12-23T00:52:02.232Z,99297.41
2022-12-23T00:54:29.503Z,99300.09
2022-12-23T00:56:55.961Z,99309.50
2022-12-23T00:59:22.720Z,99316.47
2022-12-23T01:02:08.391Z,99320.00
2022-12-23T01:04:54.641Z,99323.28
2022-12-23T01:07:22.182Z,99319.00
2022-12-23T01:09:48.665Z,99311.97
2022-12-23T01:12:15.384Z,99323.28
2022-12-23T01:14:41.874Z,99331.03
2022-12-23T01:17:09.054Z,99336.16
2022-12-23T01:19:35.788Z,99343.81
2022-12-23T01:22:02.718Z,99340.47
2022-12-23T01:24:30.810Z,99356.06
2022-12-23T01:26:57.769Z,99344.81
2022-12-23T01:29:24.775Z,99356.63
2022-12-23T01:35:02.214Z,99361.28
2022-12-23T01:37:48.638Z,99357.75
2022-12-23T01:40:36.899Z,99374.94
2022-12-23T01:43:41.895Z,99374.78
2022-12-23T01:46:28.789Z,99386.00
2022-12-23T01:49:15.469Z,99387.69
2022-12-23T01:51:43.131Z,99395.28
2022-12-23T01:54:09.618Z,99398.81
2022-12-23T01:56:39.759Z,99400.56
2022-12-23T01:59:11.885Z,99396.97
2022-12-23T02:01:57.055Z,99406.47
2022-12-23T02:04:26.195Z,99404.78
2022-12-23T02:07:11.593Z,99403.78
2022-12-23T02:09:40.349Z,99405.31
2022-12-23T02:13:05.828Z,99411.38
2022-12-23T02:16:09.686Z,99416.44
2022-12-23T02:18:45.026Z,99418.28
2022-12-23T02:21:30.849Z,99428.63
2022-12-23T02:24:18.045Z,99431.00
2022-12-23T02:27:05.262Z,99444.75
2022-12-23T02:29:40.863Z,99443.25
2022-12-23T02:32:26.961Z,99442.16
2022-12-23T02:35:10.847Z,99447.47
2022-12-23T02:38:00.294Z,99450.75
2022-12-23T02:40:39.397Z,99460.31
2022-12-23T02:43:34.849Z,99468.06
2022-12-23T02:46:33.449Z,99460.88
2022-12-23T02:49:23.675Z,99457.41
2022-12-23T02:51:54.626Z,99468.31
2022-12-23T02:54:30.938Z,99465.84
2022-12-23T02:57:01.549Z,99471.13
2022-12-23T02:59:34.302Z,99468.06
2022-12-23T03:02:01.767Z,99466.47
2022-12-23T03:04:28.675Z,99475.06
2022-12-23T03:06:57.119Z,99480.28
2022-12-23T03:09:48.492Z,99484.38
2022-12-23T03:12:46.437Z,99482.78
2022-12-23T03:15:22.331Z,99493.97
2022-12-23T03:18:25.620Z,99495.81
2022-12-23T03:21:08.226Z,99491.69
2022-12-23T03:23:53.635Z,99494.88
2022-12-23T03:26:38.924Z,99500.16
2022-12-23T03:29:13.338Z,99501.78
2022-12-23T03:31:41.347Z,99507.75
2022-12-23T03:34:16.743Z,99507.06
2022-12-23T03:36:52.960Z,99513.97
2022-12-23T03:39:24.417Z,99521.63
2022-12-23T03:41:57.826Z,99521.97
2022-12-23T03:44:30.007Z,99524.56
2022-12-23T03:47:18.947Z,99521.78
2022-12-23T03:49:53.973Z,99521.03
2022-12-23T03:52:27.386Z,99527.00
2022-12-23T03:54:56.058Z,99522.03
2022-12-23T03:57:28.710Z,99525.38
2022-12-23T03:59:55.998Z,99520.19
2022-12-23T04:02:47.399Z,99529.59
2022-12-23T04:05:26.098Z,99534.81
2022-12-23T04:08:07.733Z,99534.81
2022-12-23T04:10:35.347Z,99540.44
2022-12-23T04:13:02.016Z,99550.53
2022-12-23T04:15:28.762Z,99563.56
2022-12-23T04:17:58.109Z,99565.31
2022-12-23T04:20:24.826Z,99575.94
2022-12-23T04:22:51.828Z,99563.50
2022-12-23T04:25:18.887Z,99569.53
2022-12-23T04:27:45.597Z,99564.47
2022-12-23T04:30:13.788Z,99558.59
2022-12-23T04:32:42.052Z,99552.63
2022-12-23T04:35:09.798Z,99558.81
2022-12-23T04:37:36.679Z,99565.56
2022-12-23T04:40:04.572Z,99568.94
2022-12-23T04:42:31.272Z,99569.16
2022-12-23T04:44:58.601Z,99573.31
2022-12-23T04:47:25.103Z,99570.47
2022-12-23T04:49:54.659Z,99559.38
2022-12-23T04:52:21.303Z,99559.28
2022-12-23T04:54:48.004Z,99555.84
2022-12-23T04:57:15.840Z,99555.91
2022-12-23T04:59:42.693Z,99557.34
2022-12-23T05:02:09.668Z,99547.09
2022-12-23T05:04:36.539Z,99546.34
2022-12-23T05:07:03.129Z,99551.63
2022-12-23T05:09:29.863Z,99551.56
2022-12-23T05:11:56.274Z,99561.06
2022-12-23T05:14:23.413Z,99557.63
2022-12-23T05:16:50.169Z,99568.78
2022-12-23T05:19:17.056Z,99571.78
2022-12-23T05:21:43.549Z,99572.41
2022-12-23T05:24:10.279Z,99579.53
2022-12-23T05:26:36.986Z,99575.09
2022-12-23T05:29:03.553Z,99573.31
2022-12-23T05:31:30.158Z,99582.19
2022-12-23T05:34:04.098Z,99575.44
2022-12-23T05:36:33.181Z,99578.19
2022-12-23T05:38:59.967Z,99578.13
2022-12-23T05:41:26.585Z,99568.41
2022-12-23T05:43:53.177Z,99566.72
2022-12-23T05:46:26.286Z,99567.63
2022-12-23T05:48:53.405Z,99563.25
2022-12-23T05:51:20.097Z,99562.41
2022-12-23T05:53:46.773Z,99572.41
2022-12-23T05:56:13.273Z,99565.56
2022-12-23T05:58:39.884Z,99565.66
2022-12-23T06:01:07.698Z,99571.84
2022-12-23T06:03:34.570Z,99562.91
2022-12-23T06:06:01.468Z,99563.88
2022-12-23T06:08:27.911Z,99569.25
2022-12-23T06:10:54.682Z,99576.16
2022-12-23T06:13:21.238Z,99571.84
2022-12-23T06:15:48.248Z,99571.06
2022-12-23T06:18:15.072Z,99567.25
2022-12-23T06:20:41.550Z,99571.63
2022-12-23T06:23:08.042Z,99572.63
2022-12-23T06:25:34.732Z,99566.41
2022-12-23T06:28:01.742Z,99573.31
2022-12-23T06:30:28.458Z,99575.94
2022-12-23T06:32:54.859Z,99587.13
2022-12-23T06:35:21.588Z,99588.63
2022-12-23T06:37:48.185Z,99590.41
2022-12-23T06:40:14.980Z,99598.28
2022-12-23T06:42:41.922Z,99589.72
2022-12-23T06:45:09.075Z,99600.06
2022-12-23T06:47:35.589Z,99601.59
2022-12-23T06:50:03.981Z,99602.50
2022-12-23T06:52:30.641Z,99604.28
2022-12-23T06:54:57.309Z,99609.13
2022-12-23T06:57:24.406Z,99609.28
2022-12-23T06:59:50.883Z,99613.72
2022-12-23T07:02:17.667Z,99604.28
2022-12-23T07:04:44.295Z,99613.72
2022-12-23T07:07:10.731Z,99609.34
2022-12-23T07:09:37.383Z,99607.56
2022-12-23T07:12:04.128Z,99611.88
2022-12-23T07:14:30.814Z,99606.81
2022-12-23T07:16:57.374Z,99600.81
2022-12-23T07:19:24.263Z,99600.91
2022-12-23T07:21:50.777Z,99596.47
2022-12-23T07:24:17.207Z,99596.94
2022-12-23T07:26:43.637Z,99590.19
2022-12-23T07:29:10.077Z,99581.50
2022-12-23T07:31:40.790Z,99582.38
2022-12-23T07:34:08.276Z,99591.88
2022-12-23T07:36:35.468Z,99578.69
2022-12-23T07:39:01.971Z,99574.53
2022-12-23T07:41:28.442Z,99577.84
2022-12-23T07:43:59.556Z,99597.78
2022-12-23T07:46:26.165Z,99608.00
2022-12-23T07:48:52.982Z,99614.13
2022-12-23T07:51:19.842Z,99630.47
2022-12-23T07:53:50.547Z,99630.47
2022-12-23T07:56:18.377Z,99624.41
2022-12-23T07:58:49.227Z,99625.41
2022-12-23T08:01:16.365Z,99628.06
2022-12-23T08:03:43.032Z,99621.94
2022-12-23T08:06:14.924Z,99613.28
2022-12-23T08:08:44.170Z,99605.59
2022-12-23T08:11:12.856Z,99610.97
2022-12-23T08:13:41.452Z,99614.41
2022-12-23T08:16:08.517Z,99615.25
2022-12-23T08:18:36.991Z,99617.72
2022-12-23T08:21:05.822Z,99619.69
2022-12-23T08:23:33.101Z,99621.38
2022-12-23T08:26:21.538Z,99625.81
2022-12-23T08:28:49.683Z,99613.63
2022-12-23T08:31:25.216Z,99615.19
2022-12-23T08:33:54.447Z,99608.22
2022-12-23T08:36:23.913Z,99613.63
2022-12-23T08:38:53.969Z,99612.50
2022-12-23T08:41:23.665Z,99611.59
2022-12-23T08:43:50.554Z,99619.47
2022-12-23T08:46:18.199Z,99632.22
2022-12-23T08:48:49.080Z,99629.41
2022-12-23T08:51:18.738Z,99624.03
2022-12-23T08:53:46.603Z,99628.13
2022-12-23T08:56:16.511Z,99628.75
2022-12-23T08:58:45.669Z,99633.88
2022-12-23T09:01:15.277Z,99625.91
2022-12-23T09:03:42.445Z,99617.00
2022-12-23T09:06:21.879Z,99618.75
2022-12-23T09:08:53.287Z,99619.53
2022-12-23T09:11:23.038Z,99621.06
2022-12-23T09:13:49.909Z,99622.75
2022-12-23T09:16:17.064Z,99640.78
2022-12-23T09:18:43.692Z,99634.94
2022-12-23T09:21:13.873Z,99629.03
2022-12-23T09:23:40.721Z,99623.59
2022-12-23T09:26:09.449Z,99631.34
2022-12-23T09:28:36.322Z,99633.19
2022-12-23T09:31:11.170Z,99634.88
2022-12-23T09:33:38.492Z,99627.03
2022-12-23T09:36:05.871Z,99629.56
2022-12-23T09:38:33.077Z,99613.94
2022-12-23T09:41:21.758Z,99616.53
2022-12-23T09:44:22.434Z,99615.00
2022-12-23T09:46:57.287Z,99607.78
2022-12-23T09:49:24.277Z,99604.03
2022-12-23T09:51:55.867Z,99600.75
2022-12-23T09:54:26.707Z,99604.88
2022-12-23T09:57:13.259Z,99601.28
2022-12-23T09:59:48.871Z,99600.16
2022-12-23T10:02:36.957Z,99591.44
2022-12-23T10:05:12.471Z,99591.34
2022-12-23T10:07:46.847Z,99583.28
2022-12-23T10:10:25.537Z,99585.81
2022-12-23T10:12:53.967Z,99582.13
2022-12-23T10:15:42.904Z,99583.75
2022-12-23T10:18:20.932Z,99580.28
2022-12-23T10:20:52.578Z,99573.31
2022-12-23T10:23:29.132Z,99586.28
2022-12-23T10:25:55.651Z,99574.72
2022-12-23T10:28:23.090Z,99571.19
2022-12-23T10:34:01.850Z,99562.28
2022-12-23T10:36:33.513Z,99564.91
2022-12-23T10:39:18.195Z,99561.19
2022-12-23T10:42:16.715Z,99562.91
2022-12-23T10:44:58.531Z,99552.00
2022-12-23T10:47:51.732Z,99555.13
2022-12-23T10:50:35.001Z,99545.63
2022-12-23T10:53:04.647Z,99542.78
2022-12-23T10:55:35.440Z,99541.00
2022-12-23T10:58:07.870Z,99535.78
2022-12-23T11:00:38.900Z,99527.03
2022-12-23T11:03:20.251Z,99527.78
2022-12-23T11:05:50.686Z,99519.19
2022-12-23T11:08:18.337Z,99514.06
2022-12-23T11:10:45.738Z,99509.69
2022-12-23T11:13:24.543Z,99501.09
2022-12-23T11:15:52.395Z,99506.31
2022-12-23T11:18:21.503Z,99500.00
2022-12-23T11:21:06.042Z,99497.63
2022-12-23T11:23:35.767Z,99480.28
2022-12-23T11:26:07.617Z,99484.41
2022-12-23T11:28:38.396Z,99470.69
2022-12-23T11:31:12.037Z,99455.03
2022-12-23T11:33:45.371Z,99456.88
2022-12-23T11:36:23.680Z,99451.50
2022-12-23T11:39:03.896Z,99449.56
2022-12-23T11:41:36.465Z,99445.59
2022-12-23T11:44:17.614Z,99443.66
2022-12-23T11:46:44.384Z,99430.78
2022-12-23T11:49:19.406Z,99432.28
2022-12-23T11:51:58.933Z,99436.59
2022-12-23T11:54:25.539Z,99437.44
2022-12-23T11:56:53.547Z,99435.00
2022-12-23T11:59:40.662Z,99428.09
2022-12-23T12:02:26.978Z,99429.75
2022-12-23T12:05:01.657Z,99428.31
2022-12-23T12:07:30.280Z,99425.03
2022-12-23T12:10:00.307Z,99424.78
2022-12-23T12:12:28.250Z,99422.25
2022-12-23T12:14:57.476Z,99418.31
2022-12-23T12:17:37.652Z,99416.72
2022-12-23T12:20:25.620Z,99400.13
2022-12-23T12:23:02.651Z,99392.03
2022-12-23T12:25:44.707Z,99384.84
2022-12-23T12:28:23.275Z,99384.78
2022-12-23T12:31:02.199Z,99378.53
2022-12-23T12:33:38.304Z,99379.22
2022-12-23T12:36:29.261Z,99357.41
2022-12-23T12:38:58.742Z,99350.16
2022-12-23T12:41:33.122Z,99354.34
2022-12-23T12:44:24.601Z,99339.44
2022-12-23T12:46:56.467Z,99342.69
2022-12-23T12:49:35.670Z,99334.00
2022-12-23T12:52:13.222Z,99346.16
2022-12-23T12:54:57.602Z,99344.22
2022-12-23T12:57:25.166Z,99338.13
2022-12-23T13:00:03.605Z,99336.47
2022-12-23T13:02:41.492Z,99321.38
2022-12-23T13:05:33.802Z,99322.28
2022-12-23T13:08:23.400Z,99308.31
2022-12-23T13:10:57.604Z,99310.06
2022-12-23T13:13:45.630Z,99314.88
2022-12-23T13:16:27.551Z,99308.78
2022-12-23T13:19:06.189Z,99313.00
2022-12-23T13:21:58.482Z,99305.16
2022-12-23T13:24:34.445Z,99291.19
2022-12-23T13:27:33.724Z,99281.66
2022-12-23T13:30:21.496Z,99272.22
2022-12-23T13:32:57.630Z,99275.31
2022-12-23T13:35:52.120Z,99267.56
2022-12-23T13:38:36.356Z,99259.66
2022-12-23T13:41:04.345Z,99256.06
2022-12-23T13:43:42.933Z,99276.78
2022-12-23T13:46:22.000Z,99258.41
2022-12-23T13:48:53.849Z,99258.22
2022-12-23T13:51:34.652Z,99246.00
2022-12-23T13:54:39.692Z,99256.19
2022-12-23T13:57:21.364Z,99249.94
2022-12-23T14:00:22.064Z,99245.75
2022-12-23T14:02:52.184Z,99243.69
2022-12-23T14:05:42.239Z,99242.66
2022-12-23T14:08:17.953Z,99246.00
2022-12-23T14:11:11.117Z,99236.59
2022-12-23T14:13:46.031Z,99247.59
2022-12-23T14:16:34.964Z,99235.53
2022-12-23T14:19:23.279Z,99243.19
2022-12-23T14:21:59.281Z,99234.38
2022-12-23T14:24:42.866Z,99240.50
2022-12-23T14:27:35.800Z,99231.66
2022-12-23T14:30:21.904Z,99239.50
2022-12-23T14:33:00.122Z,99230.63
2022-12-23T14:35:40.113Z,99232.41
2022-12-23T14:38:15.203Z,99238.19
2022-12-23T14:40:42.009Z,99229.53
2022-12-23T14:43:25.904Z,99225.78
2022-12-23T14:46:00.107Z,99217.28
2022-12-23T14:48:41.624Z,99228.59
2022-12-23T14:51:08.312Z,99229.34
2022-12-23T14:53:57.456Z,99227.34
2022-12-23T14:56:39.804Z,99220.34
2022-12-23T14:59:12.393Z,99228.84
2022-12-23T15:01:54.170Z,99216.78
2022-12-23T15:04:29.901Z,99226.22
2022-12-23T15:07:04.008Z,99226.22
2022-12-23T15:09:35.676Z,99227.16
2022-12-23T15:12:14.529Z,99241.16
2022-12-23T15:14:52.503Z,99236.69
2022-12-23T15:17:34.625Z,99230.69
2022-12-23T15:20:10.515Z,99226.78
2022-12-23T15:22:38.400Z,99227.72
2022-12-23T15:25:22.814Z,99230.41
2022-12-23T15:27:49.797Z,99232.00
2022-12-23T15:30:17.705Z,99236.22
2022-12-23T15:32:50.517Z,99220.72
2022-12-23T15:35:23.758Z,99236.31
2022-12-23T15:37:51.151Z,99226.69
2022-12-23T15:40:25.276Z,99231.06
2022-12-23T15:42:52.012Z,99223.13
2022-12-23T15:45:39.585Z,99231.91
2022-12-23T15:48:22.456Z,99226.59
2022-12-23T15:50:53.335Z,99225.75
2022-12-23T15:53:20.531Z,99243.97
2022-12-23T15:55:49.176Z,99245.34
2022-12-23T15:58:22.726Z,99249.94
2022-12-23T16:00:58.017Z,99234.16
2022-12-23T16:03:40.589Z,99231.53
2022-12-23T16:06:25.909Z,99257.50
2022-12-23T16:09:15.220Z,99253.31
2022-12-23T16:11:56.308Z,99260.72
2022-12-23T16:14:35.221Z,99253.13
2022-12-23T16:17:13.899Z,99250.78
2022-12-23T16:19:56.111Z,99255.81
2022-12-23T16:22:26.818Z,99259.47
2022-12-23T16:25:15.913Z,99255.91
2022-12-23T16:27:47.373Z,99255.06
2022-12-23T16:30:24.103Z,99260.41
2022-12-23T16:32:52.343Z,99266.38
2022-12-23T16:35:33.081Z,99262.06
2022-12-23T16:38:12.788Z,99275.16
2022-12-23T16:40:39.867Z,99269.91
2022-12-23T16:43:07.860Z,99279.63
2022-12-23T16:45:36.325Z,99277.94
2022-12-23T16:48:11.496Z,99285.53
2022-12-23T16:50:38.877Z,99279.53
2022-12-23T16:53:06.074Z,99282.16
2022-12-23T16:55:32.945Z,99306.44
2022-12-23T16:58:00.418Z,99290.66
2022-12-23T17:00:27.785Z,99282.81
2022-12-23T17:02:54.945Z,99292.63
2022-12-23T17:05:23.560Z,99293.19
2022-12-23T17:07:50.519Z,99294.13
2022-12-23T17:10:18.706Z,99298.50
2022-12-23T17:12:46.896Z,99307.19
2022-12-23T17:15:23.393Z,99299.97
2022-12-23T17:17:52.463Z,99308.88
2022-12-23T17:20:20.818Z,99315.56
2022-12-23T17:22:53.716Z,99315.66
2022-12-23T17:25:26.358Z,99320.50
2022-12-23T17:27:53.718Z,99317.81
2022-12-23T17:30:23.745Z,99327.59
2022-12-23T17:33:00.187Z,99323.13
2022-12-23T17:35:26.924Z,99319.66
2022-12-23T17:37:53.407Z,99318.75
2022-12-23T17:40:20.579Z,99328.34
2022-12-23T17:42:48.166Z,99325.66
2022-12-23T17:45:29.872Z,99337.50
2022-12-23T17:47:56.833Z,99326.31
2022-12-23T17:50:24.591Z,99327.06
2022-12-23T17:52:52.591Z,99326.03
2022-12-23T17:55:23.323Z,99330.84
2022-12-23T17:57:50.785Z,99326.47
2022-12-23T18:00:28.048Z,99316.84
2022-12-23T18:03:00.759Z,99321.97
2022-12-23T18:05:30.150Z,99327.22
2022-12-23T18:07:58.539Z,99332.34
2022-12-23T18:10:33.576Z,99342.81
2022-12-23T18:13:02.694Z,99348.22
2022-12-23T18:15:39.347Z,99370.50
2022-12-23T18:18:24.607Z,99374.78
2022-12-23T18:20:57.341Z,99377.59
2022-12-23T18:23:32.733Z,99372.38
2022-12-23T18:26:00.342Z,99384.78
2022-12-23T18:28:27.568Z,99377.03
2022-12-23T18:30:58.081Z,99379.06
2022-12-23T18:33:28.620Z,99376.56
2022-12-23T18:35:55.279Z,99378.25
2022-12-23T18:38:21.732Z,99368.72
2022-12-23T18:40:52.193Z,99377.69
2022-12-23T18:43:20.817Z,99375.34
2022-12-23T18:45:52.433Z,99375.34
2022-12-23T18:48:19.953Z,99372.63
2022-12-23T18:50:49.780Z,99373.47
2022-12-23T18:53:23.928Z,99370.22
2022-12-23T18:55:52.773Z,99367.59
2022-12-23T18:58:20.551Z,99387.09
2022-12-23T19:00:50.724Z,99388.69
2022-12-23T19:03:27.299Z,99397.66
2022-12-23T19:05:54.891Z,99394.19
2022-12-23T19:08:26.641Z,99392.72
2022-12-23T19:10:54.970Z,99394.50
2022-12-23T19:13:22.324Z,99402.34
2022-12-23T19:15:49.301Z,99419.63
2022-12-23T19:18:17.629Z,99412.81
2022-12-23T19:20:45.625Z,99418.22
2022-12-23T19:23:13.220Z,99418.69
2022-12-23T19:25:42.305Z,99419.44
2022-12-23T19:28:09.577Z,99424.69
2022-12-23T19:30:36.556Z,99426.91
2022-12-23T19:33:03.373Z,99427.75
2022-12-23T19:35:30.177Z,99447.16
2022-12-23T19:37:56.948Z,99453.25
2022-12-23T19:40:23.498Z,99445.56
2022-12-23T19:42:50.429Z,99438.56
2022-12-23T19:45:17.343Z,99442.41
2022-12-23T19:47:44.052Z,99432.88
2022-12-23T19:50:11.975Z,99437.63
2022-12-23T19:52:39.126Z,99451.72
2022-12-23T19:55:06.132Z,99469.84
2022-12-23T19:57:33.451Z,99461.66
2022-12-23T20:00:01.704Z,99448.66
2022-12-23T20:02:39.135Z,99445.22
2022-12-23T20:05:06.001Z,99444.38
2022-12-23T20:07:32.543Z,99437.72
2022-12-23T20:09:59.130Z,99454.34
2022-12-23T20:12:28.133Z,99467.50
2022-12-23T20:14:54.610Z,99463.13
2022-12-23T20:17:21.167Z,99478.03
2022-12-23T20:19:47.821Z,99477.19
2022-12-23T20:22:14.369Z,99497.38
2022-12-23T20:24:41.182Z,99506.25
2022-12-23T20:27:11.885Z,99522.03
2022-12-23T20:29:39.046Z,99526.41
2022-12-23T20:32:06.094Z,99544.63
2022-12-23T20:34:38.738Z,99537.97
2022-12-23T20:37:06.408Z,99540.91
2022-12-23T20:39:33.051Z,99547.00
2022-12-23T20:41:59.453Z,99543.63
2022-12-23T20:44:35.615Z,99546.53
2022-12-23T20:47:05.305Z,99549.34
2022-12-23T20:49:31.906Z,99553.06
2022-12-23T20:51:58.908Z,99554.84
2022-12-23T20:54:32.274Z,99550.44
2022-12-23T20:57:01.295Z,99553.22
2022-12-23T20:59:27.829Z,99559.72
2022-12-23T21:01:54.833Z,99566.47
2022-12-23T21:04:22.335Z,99567.63
2022-12-23T21:06:49.194Z,99562.78
2022-12-23T21:09:16.393Z,99572.63
2022-12-23T21:11:45.722Z,99588.47
2022-12-23T21:14:13.591Z,99585.94
2022-12-23T21:16:40.983Z,99598.91
2022-12-23T21:19:09.553Z,99608.75
2022-12-23T21:21:36.344Z,99608.59
2022-12-23T21:24:05.014Z,99601.84
2022-12-23T21:26:33.524Z,99603.53
2022-12-23T21:29:02.088Z,99600.69
2022-12-23T21:31:30.605Z,99608.03
2022-12-23T21:33:58.032Z,99598.56
2022-12-23T21:36:32.921Z,99617.19
2022-12-23T21:39:00.085Z,99605.31
2022-12-23T21:41:29.584Z,99617.56
2022-12-23T21:43:58.015Z,99608.16
2022-12-23T21:46:25.740Z,99618.06
2022-12-23T21:48:52.381Z,99615.78
2022-12-23T21:51:38.968Z,99638.94
2022-12-23T21:54:08.286Z,99643.34
2022-12-23T21:56:35.453Z,99649.66
2022-12-23T21:59:07.785Z,99649.41
2022-12-23T22:01:35.239Z,99659.59
2022-12-23T22:04:05.177Z,99658.00
2022-12-23T22:06:37.506Z,99654.22
2022-12-23T22:09:05.917Z,99654.28
2022-12-23T22:11:35.122Z,99668.59
2022-12-23T22:14:03.278Z,99672.00
2022-12-23T22:16:30.882Z,99663.06
2022-12-23T22:18:58.864Z,99670.38
2022-12-23T22:21:28.241Z,99671.38
2022-12-23T22:23:55.667Z,99669.97
2022-12-23T22:26:26.197Z,99669.53
2022-12-23T22:28:55.601Z,99672.06
2022-12-23T22:31:31.290Z,99671.72
2022-12-23T22:33:59.344Z,99687.41
2022-12-23T22:36:26.362Z,99683.34
2022-12-23T22:38:55.359Z,99697.41
2022-12-23T22:41:23.033Z,99698.63
2022-12-23T22:43:50.118Z,99705.94
2022-12-23T22:46:18.259Z,99712.94
2022-12-23T22:48:45.571Z,99701.63
2022-12-23T22:51:15.950Z,99703.47
2022-12-23T22:53:42.416Z,99713.16
2022-12-23T22:56:11.773Z,99707.69
2022-12-23T22:58:38.769Z,99712.22
2022-12-23T23:01:06.342Z,99723.84
2022-12-23T23:03:33.584Z,99727.75
2022-12-23T23:06:04.272Z,99716.38
2022-12-23T23:08:31.774Z,99727.00
2022-12-23T23:11:00.137Z,99730.75
2022-12-23T23:13:29.507Z,99733.81
2022-12-23T23:15:56.875Z,99728.53
2022-12-23T23:18:24.249Z,99739.13
2022-12-23T23:20:51.562Z,99739.44
2022-12-23T23:23:18.130Z,99749.13
2022-12-23T23:25:45.246Z,99746.41
2022-12-23T23:28:11.955Z,99746.66
2022-12-23T23:30:39.010Z,99757.28
2022-12-23T23:33:07.589Z,99759.94
2022-12-23T23:35:35.567Z,99762.31
2022-12-23T23:38:02.468Z,99765.88
2022-12-23T23:40:29.381Z,99777.91
2022-12-23T23:42:55.892Z,99776.63
2022-12-23T23:45:22.628Z,99773.53
2022-12-23T23:47:49.280Z,99784.00
2022-12-23T23:50:15.901Z,99792.59
2022-12-23T23:52:42.416Z,99784.53
2022-12-23T23:55:09.208Z,99781.06
2022-12-23T23:57:36.105Z,99793.44
